sensor_id;sensor_type;location;lat;lon;timestamp;P1;durP1;ratioP1;P2;durP2;ratioP2
49758;SDS011;35654;46.080;11.118;2022-07-04T00:03:12;8.35;;;4.93;;
49758;SDS011;35654;46.080;11.118;2022-07-04T00:08:03;10.73;;;4.35;;
49758;SDS011;35654;46.080;11.118;2022-07-04T00:10:29;8.35;;;4.60;;
49758;SDS011;35654;46.080;11.118;2022-07-04T00:15:21;7.97;;;4.80;;
49758;SDS011;35654;46.080;11.118;2022-07-04T00:20:12;8.45;;;5.03;;
49758;SDS011;35654;46.080;11.118;2022-07-04T00:25:03;9.50;;;5.32;;
49758;SDS011;35654;46.080;11.118;2022-07-04T00:27:30;10.50;;;5.50;;
49758;SDS011;35654;46.080;11.118;2022-07-04T00:29:55;7.95;;;5.47;;
49758;SDS011;35654;46.080;11.118;2022-07-04T00:32:21;8.95;;;5.25;;
49758;SDS011;35654;46.080;11.118;2022-07-04T00:34:47;10.20;;;5.47;;
49758;SDS011;35654;46.080;11.118;2022-07-04T00:37:12;8.15;;;5.03;;
49758;SDS011;35654;46.080;11.118;2022-07-04T00:42:03;9.63;;;4.97;;
49758;SDS011;35654;46.080;11.118;2022-07-04T00:44:29;7.13;;;4.93;;
49758;SDS011;35654;46.080;11.118;2022-07-04T00:46:55;10.57;;;5.03;;
49758;SDS011;35654;46.080;11.118;2022-07-04T00:49:21;10.30;;;4.68;;
49758;SDS011;35654;46.080;11.118;2022-07-04T00:51:46;9.63;;;5.15;;
49758;SDS011;35654;46.080;11.118;2022-07-04T00:56:40;7.30;;;4.60;;
49758;SDS011;35654;46.080;11.118;2022-07-04T00:59:07;7.90;;;4.30;;
49758;SDS011;35654;46.080;11.118;2022-07-04T01:01:33;5.85;;;4.63;;
49758;SDS011;35654;46.080;11.118;2022-07-04T01:06:26;6.60;;;4.45;;
49758;SDS011;35654;46.080;11.118;2022-07-04T01:08:51;5.82;;;4.40;;
49758;SDS011;35654;46.080;11.118;2022-07-04T01:11:17;11.32;;;4.82;;
49758;SDS011;35654;46.080;11.118;2022-07-04T01:16:08;6.18;;;3.97;;
49758;SDS011;35654;46.080;11.118;2022-07-04T01:18:35;6.28;;;4.25;;
49758;SDS011;35654;46.080;11.118;2022-07-04T01:21:00;7.95;;;4.40;;
49758;SDS011;35654;46.080;11.118;2022-07-04T01:23:26;5.55;;;4.15;;
49758;SDS011;35654;46.080;11.118;2022-07-04T01:28:21;8.20;;;4.90;;
49758;SDS011;35654;46.080;11.118;2022-07-04T01:30:47;8.15;;;4.18;;
49758;SDS011;35654;46.080;11.118;2022-07-04T01:33:13;7.97;;;4.55;;
49758;SDS011;35654;46.080;11.118;2022-07-04T01:35:39;7.40;;;4.18;;
49758;SDS011;35654;46.080;11.118;2022-07-04T01:38:04;9.63;;;3.92;;
49758;SDS011;35654;46.080;11.118;2022-07-04T01:42:55;7.95;;;4.20;;
49758;SDS011;35654;46.080;11.118;2022-07-04T01:45:23;6.55;;;4.28;;
49758;SDS011;35654;46.080;11.118;2022-07-04T01:50:14;6.75;;;4.70;;
49758;SDS011;35654;46.080;11.118;2022-07-04T01:52:40;7.70;;;4.15;;
49758;SDS011;35654;46.080;11.118;2022-07-04T01:57:32;9.63;;;4.82;;
49758;SDS011;35654;46.080;11.118;2022-07-04T01:59:58;5.85;;;4.30;;
49758;SDS011;35654;46.080;11.118;2022-07-04T02:02:41;6.35;;;4.43;;
49758;SDS011;35654;46.080;11.118;2022-07-04T02:05:07;7.40;;;4.67;;
49758;SDS011;35654;46.080;11.118;2022-07-04T02:07:32;6.82;;;4.70;;
49758;SDS011;35654;46.080;11.118;2022-07-04T02:09:58;6.28;;;4.65;;
49758;SDS011;35654;46.080;11.118;2022-07-04T02:12:23;6.80;;;4.40;;
49758;SDS011;35654;46.080;11.118;2022-07-04T02:15:07;7.07;;;4.40;;
49758;SDS011;35654;46.080;11.118;2022-07-04T02:17:33;8.30;;;4.35;;
49758;SDS011;35654;46.080;11.118;2022-07-04T02:19:59;6.82;;;4.40;;
49758;SDS011;35654;46.080;11.118;2022-07-04T02:22:24;6.57;;;4.60;;
49758;SDS011;35654;46.080;11.118;2022-07-04T02:24:50;6.43;;;4.10;;
49758;SDS011;35654;46.080;11.118;2022-07-04T02:27:15;6.90;;;4.25;;
49758;SDS011;35654;46.080;11.118;2022-07-04T02:29:41;7.45;;;4.68;;
49758;SDS011;35654;46.080;11.118;2022-07-04T02:32:06;10.00;;;4.85;;
49758;SDS011;35654;46.080;11.118;2022-07-04T02:34:32;11.48;;;4.60;;
49758;SDS011;35654;46.080;11.118;2022-07-04T02:36:58;8.20;;;4.70;;
49758;SDS011;35654;46.080;11.118;2022-07-04T02:39:23;8.00;;;4.47;;
49758;SDS011;35654;46.080;11.118;2022-07-04T02:41:49;7.35;;;4.55;;
49758;SDS011;35654;46.080;11.118;2022-07-04T02:44:15;5.68;;;4.15;;
49758;SDS011;35654;46.080;11.118;2022-07-04T02:46:40;10.35;;;4.45;;
49758;SDS011;35654;46.080;11.118;2022-07-04T02:49:06;7.47;;;4.47;;
49758;SDS011;35654;46.080;11.118;2022-07-04T02:51:31;7.38;;;4.57;;
49758;SDS011;35654;46.080;11.118;2022-07-04T02:53:57;9.18;;;5.20;;
49758;SDS011;35654;46.080;11.118;2022-07-04T02:56:23;9.25;;;4.82;;
49758;SDS011;35654;46.080;11.118;2022-07-04T02:58:49;8.80;;;5.07;;
49758;SDS011;35654;46.080;11.118;2022-07-04T03:01:16;10.52;;;5.03;;
49758;SDS011;35654;46.080;11.118;2022-07-04T03:03:44;7.82;;;5.10;;
49758;SDS011;35654;46.080;11.118;2022-07-04T03:06:10;7.20;;;4.43;;
49758;SDS011;35654;46.080;11.118;2022-07-04T03:08:35;6.65;;;4.65;;
49758;SDS011;35654;46.080;11.118;2022-07-04T03:11:01;8.02;;;4.78;;
49758;SDS011;35654;46.080;11.118;2022-07-04T03:13:27;6.07;;;4.47;;
49758;SDS011;35654;46.080;11.118;2022-07-04T03:15:52;6.57;;;4.13;;
49758;SDS011;35654;46.080;11.118;2022-07-04T03:18:18;6.30;;;4.00;;
49758;SDS011;35654;46.080;11.118;2022-07-04T03:20:44;7.95;;;4.13;;
49758;SDS011;35654;46.080;11.118;2022-07-04T03:23:09;6.53;;;4.40;;
49758;SDS011;35654;46.080;11.118;2022-07-04T03:25:35;6.85;;;3.97;;
49758;SDS011;35654;46.080;11.118;2022-07-04T03:28:01;7.45;;;4.10;;
49758;SDS011;35654;46.080;11.118;2022-07-04T03:30:27;7.18;;;4.00;;
49758;SDS011;35654;46.080;11.118;2022-07-04T03:32:53;10.03;;;3.97;;
49758;SDS011;35654;46.080;11.118;2022-07-04T03:35:18;10.40;;;3.95;;
49758;SDS011;35654;46.080;11.118;2022-07-04T03:37:44;5.95;;;3.88;;
49758;SDS011;35654;46.080;11.118;2022-07-04T03:40:09;5.07;;;3.83;;
49758;SDS011;35654;46.080;11.118;2022-07-04T03:42:35;8.80;;;4.30;;
49758;SDS011;35654;46.080;11.118;2022-07-04T03:45:00;7.27;;;3.83;;
49758;SDS011;35654;46.080;11.118;2022-07-04T03:47:26;5.45;;;3.90;;
49758;SDS011;35654;46.080;11.118;2022-07-04T03:49:51;5.53;;;4.40;;
49758;SDS011;35654;46.080;11.118;2022-07-04T03:52:17;6.93;;;4.23;;
49758;SDS011;35654;46.080;11.118;2022-07-04T03:54:42;9.80;;;4.17;;
49758;SDS011;35654;46.080;11.118;2022-07-04T03:57:07;6.53;;;4.13;;
49758;SDS011;35654;46.080;11.118;2022-07-04T03:59:33;6.27;;;4.00;;
49758;SDS011;35654;46.080;11.118;2022-07-04T04:01:58;5.57;;;3.97;;
49758;SDS011;35654;46.080;11.118;2022-07-04T04:04:23;10.55;;;4.38;;
49758;SDS011;35654;46.080;11.118;2022-07-04T04:07:07;6.47;;;4.43;;
49758;SDS011;35654;46.080;11.118;2022-07-04T04:09:33;6.65;;;3.80;;
49758;SDS011;35654;46.080;11.118;2022-07-04T04:11:58;7.00;;;3.85;;
49758;SDS011;35654;46.080;11.118;2022-07-04T04:14:24;4.10;;;3.70;;
49758;SDS011;35654;46.080;11.118;2022-07-04T04:16:49;8.32;;;4.05;;
49758;SDS011;35654;46.080;11.118;2022-07-04T04:19:15;8.75;;;4.43;;
49758;SDS011;35654;46.080;11.118;2022-07-04T04:21:41;4.97;;;3.45;;
49758;SDS011;35654;46.080;11.118;2022-07-04T04:24:06;5.47;;;3.85;;
49758;SDS011;35654;46.080;11.118;2022-07-04T04:28:58;8.40;;;3.80;;
49758;SDS011;35654;46.080;11.118;2022-07-04T04:31:23;8.63;;;3.90;;
49758;SDS011;35654;46.080;11.118;2022-07-04T04:33:49;6.23;;;4.27;;
49758;SDS011;35654;46.080;11.118;2022-07-04T04:36:14;6.27;;;4.13;;
49758;SDS011;35654;46.080;11.118;2022-07-04T04:38:39;6.50;;;3.90;;
49758;SDS011;35654;46.080;11.118;2022-07-04T04:41:05;8.25;;;4.15;;
49758;SDS011;35654;46.080;11.118;2022-07-04T04:43:30;5.87;;;3.87;;
49758;SDS011;35654;46.080;11.118;2022-07-04T04:45:56;11.63;;;4.50;;
49758;SDS011;35654;46.080;11.118;2022-07-04T04:48:21;6.82;;;4.03;;
49758;SDS011;35654;46.080;11.118;2022-07-04T04:50:46;8.90;;;4.47;;
49758;SDS011;35654;46.080;11.118;2022-07-04T04:53:12;6.03;;;4.40;;
49758;SDS011;35654;46.080;11.118;2022-07-04T04:55:38;7.65;;;4.20;;
49758;SDS011;35654;46.080;11.118;2022-07-04T05:00:29;5.80;;;4.28;;
49758;SDS011;35654;46.080;11.118;2022-07-04T05:02:55;6.65;;;4.00;;
49758;SDS011;35654;46.080;11.118;2022-07-04T05:05:20;5.47;;;3.97;;
49758;SDS011;35654;46.080;11.118;2022-07-04T05:07:45;7.30;;;4.65;;
49758;SDS011;35654;46.080;11.118;2022-07-04T05:10:11;12.53;;;4.60;;
49758;SDS011;35654;46.080;11.118;2022-07-04T05:12:36;11.00;;;4.13;;
49758;SDS011;35654;46.080;11.118;2022-07-04T05:15:02;17.00;;;4.70;;
49758;SDS011;35654;46.080;11.118;2022-07-04T05:17:29;10.85;;;3.92;;
49758;SDS011;35654;46.080;11.118;2022-07-04T05:19:56;6.28;;;3.60;;
49758;SDS011;35654;46.080;11.118;2022-07-04T05:22:22;7.30;;;4.40;;
49758;SDS011;35654;46.080;11.118;2022-07-04T05:24:49;7.60;;;4.20;;
49758;SDS011;35654;46.080;11.118;2022-07-04T05:27:15;5.95;;;4.13;;
49758;SDS011;35654;46.080;11.118;2022-07-04T05:29:42;6.60;;;3.88;;
49758;SDS011;35654;46.080;11.118;2022-07-04T05:32:09;12.68;;;4.18;;
49758;SDS011;35654;46.080;11.118;2022-07-04T05:34:35;9.77;;;4.57;;
49758;SDS011;35654;46.080;11.118;2022-07-04T05:37:02;8.48;;;4.18;;
49758;SDS011;35654;46.080;11.118;2022-07-04T05:39:29;10.70;;;4.63;;
49758;SDS011;35654;46.080;11.118;2022-07-04T05:41:55;7.32;;;4.50;;
49758;SDS011;35654;46.080;11.118;2022-07-04T05:44:22;10.68;;;4.38;;
49758;SDS011;35654;46.080;11.118;2022-07-04T05:46:49;5.78;;;4.60;;
49758;SDS011;35654;46.080;11.118;2022-07-04T05:49:15;9.98;;;3.97;;
49758;SDS011;35654;46.080;11.118;2022-07-04T05:51:40;7.13;;;3.77;;
49758;SDS011;35654;46.080;11.118;2022-07-04T05:54:05;8.77;;;4.40;;
49758;SDS011;35654;46.080;11.118;2022-07-04T05:56:32;7.07;;;4.30;;
49758;SDS011;35654;46.080;11.118;2022-07-04T05:58:59;5.70;;;4.00;;
49758;SDS011;35654;46.080;11.118;2022-07-04T06:01:26;5.53;;;3.83;;
49758;SDS011;35654;46.080;11.118;2022-07-04T06:03:52;6.35;;;3.42;;
49758;SDS011;35654;46.080;11.118;2022-07-04T06:06:19;6.57;;;3.90;;
49758;SDS011;35654;46.080;11.118;2022-07-04T06:08:45;5.47;;;4.25;;
49758;SDS011;35654;46.080;11.118;2022-07-04T06:11:11;7.00;;;3.90;;
49758;SDS011;35654;46.080;11.118;2022-07-04T06:13:37;5.88;;;4.05;;
49758;SDS011;35654;46.080;11.118;2022-07-04T06:16:03;7.85;;;3.85;;
49758;SDS011;35654;46.080;11.118;2022-07-04T06:18:28;6.95;;;4.20;;
49758;SDS011;35654;46.080;11.118;2022-07-04T06:20:54;7.22;;;4.28;;
49758;SDS011;35654;46.080;11.118;2022-07-04T06:23:20;8.13;;;3.83;;
49758;SDS011;35654;46.080;11.118;2022-07-04T06:25:45;5.97;;;4.27;;
49758;SDS011;35654;46.080;11.118;2022-07-04T06:28:11;6.85;;;3.90;;
49758;SDS011;35654;46.080;11.118;2022-07-04T06:30:37;8.10;;;3.85;;
49758;SDS011;35654;46.080;11.118;2022-07-04T06:33:02;4.97;;;3.83;;
49758;SDS011;35654;46.080;11.118;2022-07-04T06:35:30;6.03;;;3.85;;
49758;SDS011;35654;46.080;11.118;2022-07-04T06:38:15;6.50;;;3.72;;
49758;SDS011;35654;46.080;11.118;2022-07-04T06:40:42;9.77;;;3.92;;
49758;SDS011;35654;46.080;11.118;2022-07-04T06:45:34;5.35;;;3.42;;
49758;SDS011;35654;46.080;11.118;2022-07-04T06:50:26;4.85;;;3.80;;
49758;SDS011;35654;46.080;11.118;2022-07-04T06:52:51;8.02;;;4.03;;
49758;SDS011;35654;46.080;11.118;2022-07-04T06:55:17;5.22;;;3.85;;
49758;SDS011;35654;46.080;11.118;2022-07-04T06:57:42;9.00;;;3.72;;
49758;SDS011;35654;46.080;11.118;2022-07-04T07:00:08;5.30;;;3.95;;
49758;SDS011;35654;46.080;11.118;2022-07-04T07:02:34;4.95;;;3.67;;
49758;SDS011;35654;46.080;11.118;2022-07-04T07:05:00;8.18;;;3.65;;
49758;SDS011;35654;46.080;11.118;2022-07-04T07:07:26;7.13;;;3.90;;
49758;SDS011;35654;46.080;11.118;2022-07-04T07:09:52;7.05;;;4.00;;
49758;SDS011;35654;46.080;11.118;2022-07-04T07:14:44;5.47;;;3.40;;
49758;SDS011;35654;46.080;11.118;2022-07-04T07:17:09;5.95;;;3.63;;
49758;SDS011;35654;46.080;11.118;2022-07-04T07:22:00;7.75;;;3.88;;
49758;SDS011;35654;46.080;11.118;2022-07-04T07:24:26;5.38;;;3.58;;
49758;SDS011;35654;46.080;11.118;2022-07-04T07:26:55;4.50;;;3.47;;
49758;SDS011;35654;46.080;11.118;2022-07-04T07:29:20;6.78;;;3.95;;
49758;SDS011;35654;46.080;11.118;2022-07-04T07:34:11;8.47;;;3.40;;
49758;SDS011;35654;46.080;11.118;2022-07-04T07:36:36;6.25;;;3.30;;
49758;SDS011;35654;46.080;11.118;2022-07-04T07:41:27;6.82;;;3.72;;
49758;SDS011;35654;46.080;11.118;2022-07-04T07:46:18;8.63;;;3.47;;
49758;SDS011;35654;46.080;11.118;2022-07-04T07:51:11;7.07;;;3.93;;
49758;SDS011;35654;46.080;11.118;2022-07-04T07:53:36;6.15;;;3.78;;
49758;SDS011;35654;46.080;11.118;2022-07-04T07:58:27;5.00;;;3.58;;
49758;SDS011;35654;46.080;11.118;2022-07-04T08:03:18;6.70;;;3.80;;
49758;SDS011;35654;46.080;11.118;2022-07-04T08:06:02;5.03;;;3.33;;
49758;SDS011;35654;46.080;11.118;2022-07-04T08:10:52;7.45;;;3.75;;
49758;SDS011;35654;46.080;11.118;2022-07-04T08:15:43;6.47;;;3.90;;
49758;SDS011;35654;46.080;11.118;2022-07-04T08:20:34;5.53;;;3.63;;
49758;SDS011;35654;46.080;11.118;2022-07-04T08:25:24;6.88;;;3.92;;
49758;SDS011;35654;46.080;11.118;2022-07-04T08:30:15;6.80;;;3.83;;
49758;SDS011;35654;46.080;11.118;2022-07-04T08:35:06;6.50;;;4.00;;
49758;SDS011;35654;46.080;11.118;2022-07-04T08:37:32;6.97;;;3.90;;
49758;SDS011;35654;46.080;11.118;2022-07-04T08:39:58;4.70;;;3.67;;
49758;SDS011;35654;46.080;11.118;2022-07-04T08:44:50;5.78;;;3.65;;
49758;SDS011;35654;46.080;11.118;2022-07-04T08:47:20;8.45;;;3.72;;
49758;SDS011;35654;46.080;11.118;2022-07-04T08:52:47;10.02;;;5.95;;
49758;SDS011;35654;46.080;11.118;2022-07-04T08:55:19;8.13;;;3.80;;
49758;SDS011;35654;46.080;11.118;2022-07-04T08:58:03;10.90;;;4.65;;
49758;SDS011;35654;46.080;11.118;2022-07-04T09:00:49;10.63;;;4.30;;
49758;SDS011;35654;46.080;11.118;2022-07-04T09:03:16;6.70;;;4.00;;
49758;SDS011;35654;46.080;11.118;2022-07-04T09:05:43;6.72;;;3.97;;
49758;SDS011;35654;46.080;11.118;2022-07-04T09:08:09;9.13;;;3.92;;
49758;SDS011;35654;46.080;11.118;2022-07-04T09:13:01;14.68;;;4.80;;
49758;SDS011;35654;46.080;11.118;2022-07-04T09:15:28;17.15;;;7.20;;
49758;SDS011;35654;46.080;11.118;2022-07-04T09:17:53;11.88;;;4.30;;
49758;SDS011;35654;46.080;11.118;2022-07-04T09:22:46;5.20;;;3.87;;
49758;SDS011;35654;46.080;11.118;2022-07-04T09:25:13;8.02;;;3.95;;
49758;SDS011;35654;46.080;11.118;2022-07-04T09:27:41;7.80;;;4.22;;
49758;SDS011;35654;46.080;11.118;2022-07-04T09:30:10;8.25;;;4.00;;
49758;SDS011;35654;46.080;11.118;2022-07-04T09:32:44;9.18;;;3.78;;
49758;SDS011;35654;46.080;11.118;2022-07-04T09:37:39;12.95;;;4.15;;
49758;SDS011;35654;46.080;11.118;2022-07-04T09:40:11;9.32;;;4.40;;
49758;SDS011;35654;46.080;11.118;2022-07-04T09:42:49;10.30;;;4.07;;
49758;SDS011;35654;46.080;11.118;2022-07-04T09:45:15;7.32;;;3.85;;
49758;SDS011;35654;46.080;11.118;2022-07-04T09:47:40;11.30;;;3.33;;
49758;SDS011;35654;46.080;11.118;2022-07-04T09:55:33;6.35;;;2.88;;
49758;SDS011;35654;46.080;11.118;2022-07-04T09:58:00;4.45;;;3.00;;
49758;SDS011;35654;46.080;11.118;2022-07-04T10:00:36;5.75;;;3.17;;
49758;SDS011;35654;46.080;11.118;2022-07-04T10:06:11;5.55;;;3.00;;
49758;SDS011;35654;46.080;11.118;2022-07-04T10:08:42;8.10;;;3.30;;
49758;SDS011;35654;46.080;11.118;2022-07-04T10:11:08;4.10;;;2.97;;
49758;SDS011;35654;46.080;11.118;2022-07-04T10:13:34;6.45;;;3.53;;
49758;SDS011;35654;46.080;11.118;2022-07-04T10:18:26;8.23;;;3.60;;
49758;SDS011;35654;46.080;11.118;2022-07-04T10:20:53;9.50;;;3.60;;
49758;SDS011;35654;46.080;11.118;2022-07-04T10:23:19;6.43;;;3.45;;
49758;SDS011;35654;46.080;11.118;2022-07-04T10:25:47;13.80;;;5.57;;
49758;SDS011;35654;46.080;11.118;2022-07-04T10:28:13;8.02;;;4.10;;
49758;SDS011;35654;46.080;11.118;2022-07-04T10:33:06;9.00;;;5.00;;
49758;SDS011;35654;46.080;11.118;2022-07-04T10:38:11;7.05;;;4.47;;
49758;SDS011;35654;46.080;11.118;2022-07-04T10:40:41;7.38;;;4.85;;
49758;SDS011;35654;46.080;11.118;2022-07-04T10:43:35;9.50;;;5.35;;
49758;SDS011;35654;46.080;11.118;2022-07-04T10:48:51;18.02;;;6.30;;
49758;SDS011;35654;46.080;11.118;2022-07-04T10:51:36;18.88;;;7.07;;
49758;SDS011;35654;46.080;11.118;2022-07-04T11:01:47;12.85;;;5.82;;
49758;SDS011;35654;46.080;11.118;2022-07-04T11:04:43;14.93;;;5.65;;
49758;SDS011;35654;46.080;11.118;2022-07-04T11:07:09;9.73;;;5.18;;
49758;SDS011;35654;46.080;11.118;2022-07-04T11:09:36;12.53;;;5.43;;
49758;SDS011;35654;46.080;11.118;2022-07-04T11:17:13;9.40;;;6.00;;
49758;SDS011;35654;46.080;11.118;2022-07-04T11:19:41;11.32;;;5.88;;
49758;SDS011;35654;46.080;11.118;2022-07-04T11:22:07;12.90;;;5.05;;
49758;SDS011;35654;46.080;11.118;2022-07-04T11:24:36;10.38;;;4.28;;
49758;SDS011;35654;46.080;11.118;2022-07-04T11:27:02;9.80;;;4.20;;
49758;SDS011;35654;46.080;11.118;2022-07-04T11:29:28;15.18;;;4.65;;
49758;SDS011;35654;46.080;11.118;2022-07-04T11:31:55;12.88;;;5.30;;
49758;SDS011;35654;46.080;11.118;2022-07-04T11:34:21;15.43;;;5.60;;
49758;SDS011;35654;46.080;11.118;2022-07-04T11:36:47;11.95;;;5.53;;
49758;SDS011;35654;46.080;11.118;2022-07-04T11:39:15;7.10;;;4.75;;
49758;SDS011;35654;46.080;11.118;2022-07-04T11:41:46;7.05;;;4.30;;
49758;SDS011;35654;46.080;11.118;2022-07-04T11:44:33;6.05;;;3.88;;
49758;SDS011;35654;46.080;11.118;2022-07-04T11:49:53;6.75;;;3.90;;
49758;SDS011;35654;46.080;11.118;2022-07-04T11:52:27;5.80;;;3.38;;
49758;SDS011;35654;46.080;11.118;2022-07-04T11:54:54;6.85;;;4.05;;
49758;SDS011;35654;46.080;11.118;2022-07-04T12:00:00;5.25;;;3.60;;
49758;SDS011;35654;46.080;11.118;2022-07-04T12:02:29;6.68;;;3.90;;
49758;SDS011;35654;46.080;11.118;2022-07-04T12:04:55;6.15;;;3.67;;
49758;SDS011;35654;46.080;11.118;2022-07-04T12:07:23;5.45;;;3.15;;
49758;SDS011;35654;46.080;11.118;2022-07-04T12:09:51;5.20;;;2.95;;
49758;SDS011;35654;46.080;11.118;2022-07-04T12:12:17;4.32;;;3.10;;
49758;SDS011;35654;46.080;11.118;2022-07-04T12:17:35;5.03;;;3.15;;
49758;SDS011;35654;46.080;11.118;2022-07-04T12:20:12;3.25;;;2.60;;
49758;SDS011;35654;46.080;11.118;2022-07-04T12:22:43;8.75;;;2.70;;
49758;SDS011;35654;46.080;11.118;2022-07-04T12:25:27;5.30;;;2.53;;
49758;SDS011;35654;46.080;11.118;2022-07-04T12:30:22;4.82;;;2.72;;
49758;SDS011;35654;46.080;11.118;2022-07-04T12:32:50;4.97;;;3.15;;
49758;SDS011;35654;46.080;11.118;2022-07-04T12:41:10;4.93;;;3.20;;
49758;SDS011;35654;46.080;11.118;2022-07-04T12:46:08;3.50;;;2.80;;
49758;SDS011;35654;46.080;11.118;2022-07-04T12:48:34;6.00;;;3.00;;
49758;SDS011;35654;46.080;11.118;2022-07-04T12:53:36;4.03;;;2.85;;
49758;SDS011;35654;46.080;11.118;2022-07-04T12:56:03;3.00;;;2.70;;
49758;SDS011;35654;46.080;11.118;2022-07-04T12:58:28;3.55;;;2.80;;
49758;SDS011;35654;46.080;11.118;2022-07-04T13:00:54;7.38;;;3.30;;
49758;SDS011;35654;46.080;11.118;2022-07-04T13:03:19;4.45;;;2.80;;
49758;SDS011;35654;46.080;11.118;2022-07-04T13:05:45;4.82;;;2.83;;
49758;SDS011;35654;46.080;11.118;2022-07-04T13:08:10;3.38;;;2.78;;
49758;SDS011;35654;46.080;11.118;2022-07-04T13:10:37;5.75;;;2.78;;
49758;SDS011;35654;46.080;11.118;2022-07-04T13:13:02;5.13;;;2.85;;
49758;SDS011;35654;46.080;11.118;2022-07-04T13:15:28;4.93;;;3.10;;
49758;SDS011;35654;46.080;11.118;2022-07-04T13:17:54;5.53;;;2.88;;
49758;SDS011;35654;46.080;11.118;2022-07-04T13:20:19;4.22;;;2.60;;
49758;SDS011;35654;46.080;11.118;2022-07-04T13:22:45;3.35;;;2.45;;
49758;SDS011;35654;46.080;11.118;2022-07-04T13:25:10;3.65;;;2.20;;
49758;SDS011;35654;46.080;11.118;2022-07-04T13:27:35;4.85;;;2.50;;
49758;SDS011;35654;46.080;11.118;2022-07-04T13:30:01;5.80;;;2.25;;
49758;SDS011;35654;46.080;11.118;2022-07-04T13:32:27;4.20;;;2.20;;
49758;SDS011;35654;46.080;11.118;2022-07-04T13:34:52;3.50;;;2.30;;
49758;SDS011;35654;46.080;11.118;2022-07-04T13:37:18;3.63;;;2.05;;
49758;SDS011;35654;46.080;11.118;2022-07-04T13:39:44;4.63;;;2.45;;
49758;SDS011;35654;46.080;11.118;2022-07-04T13:42:09;3.05;;;2.38;;
49758;SDS011;35654;46.080;11.118;2022-07-04T13:44:35;4.95;;;2.10;;
49758;SDS011;35654;46.080;11.118;2022-07-04T13:47:00;2.22;;;1.90;;
49758;SDS011;35654;46.080;11.118;2022-07-04T13:49:26;4.28;;;2.13;;
49758;SDS011;35654;46.080;11.118;2022-07-04T13:51:51;3.88;;;1.90;;
49758;SDS011;35654;46.080;11.118;2022-07-04T13:54:17;2.72;;;2.20;;
49758;SDS011;35654;46.080;11.118;2022-07-04T13:56:43;3.45;;;2.10;;
49758;SDS011;35654;46.080;11.118;2022-07-04T13:59:09;4.53;;;2.38;;
49758;SDS011;35654;46.080;11.118;2022-07-04T14:01:35;4.00;;;2.22;;
49758;SDS011;35654;46.080;11.118;2022-07-04T14:04:00;2.92;;;1.90;;
49758;SDS011;35654;46.080;11.118;2022-07-04T14:06:26;3.13;;;2.28;;
49758;SDS011;35654;46.080;11.118;2022-07-04T14:08:52;3.95;;;2.13;;
49758;SDS011;35654;46.080;11.118;2022-07-04T14:11:18;3.58;;;1.90;;
49758;SDS011;35654;46.080;11.118;2022-07-04T14:13:43;3.92;;;2.10;;
49758;SDS011;35654;46.080;11.118;2022-07-04T14:16:09;2.83;;;1.88;;
49758;SDS011;35654;46.080;11.118;2022-07-04T14:18:34;3.45;;;2.05;;
49758;SDS011;35654;46.080;11.118;2022-07-04T14:21:00;3.67;;;2.35;;
49758;SDS011;35654;46.080;11.118;2022-07-04T14:23:25;5.55;;;2.30;;
49758;SDS011;35654;46.080;11.118;2022-07-04T14:26:06;2.42;;;2.10;;
49758;SDS011;35654;46.080;11.118;2022-07-04T14:28:36;3.53;;;2.60;;
49758;SDS011;35654;46.080;11.118;2022-07-04T14:31:02;6.20;;;2.55;;
49758;SDS011;35654;46.080;11.118;2022-07-04T14:33:28;4.65;;;2.60;;
49758;SDS011;35654;46.080;11.118;2022-07-04T14:35:53;3.90;;;2.40;;
49758;SDS011;35654;46.080;11.118;2022-07-04T14:38:19;2.50;;;2.17;;
49758;SDS011;35654;46.080;11.118;2022-07-04T14:40:45;4.82;;;2.60;;
49758;SDS011;35654;46.080;11.118;2022-07-04T14:43:13;4.45;;;2.55;;
49758;SDS011;35654;46.080;11.118;2022-07-04T14:45:39;6.53;;;2.50;;
49758;SDS011;35654;46.080;11.118;2022-07-04T14:48:04;3.63;;;2.40;;
49758;SDS011;35654;46.080;11.118;2022-07-04T14:50:30;3.92;;;2.60;;
49758;SDS011;35654;46.080;11.118;2022-07-04T14:52:56;4.78;;;2.53;;
49758;SDS011;35654;46.080;11.118;2022-07-04T14:55:21;3.03;;;2.20;;
49758;SDS011;35654;46.080;11.118;2022-07-04T14:57:47;3.22;;;2.38;;
49758;SDS011;35654;46.080;11.118;2022-07-04T15:00:12;4.97;;;2.38;;
49758;SDS011;35654;46.080;11.118;2022-07-04T15:02:37;5.03;;;2.40;;
49758;SDS011;35654;46.080;11.118;2022-07-04T15:05:03;6.18;;;2.88;;
49758;SDS011;35654;46.080;11.118;2022-07-04T15:07:29;4.03;;;2.22;;
49758;SDS011;35654;46.080;11.118;2022-07-04T15:09:55;4.07;;;3.67;;
49758;SDS011;35654;46.080;11.118;2022-07-04T15:12:20;2.88;;;2.28;;
49758;SDS011;35654;46.080;11.118;2022-07-04T15:14:46;5.10;;;2.40;;
49758;SDS011;35654;46.080;11.118;2022-07-04T15:17:12;2.80;;;2.17;;
49758;SDS011;35654;46.080;11.118;2022-07-04T15:19:37;4.88;;;2.20;;
49758;SDS011;35654;46.080;11.118;2022-07-04T15:22:21;3.63;;;2.25;;
49758;SDS011;35654;46.080;11.118;2022-07-04T15:25:05;3.05;;;2.53;;
49758;SDS011;35654;46.080;11.118;2022-07-04T15:27:31;6.85;;;2.83;;
49758;SDS011;35654;46.080;11.118;2022-07-04T15:29:56;3.10;;;2.42;;
49758;SDS011;35654;46.080;11.118;2022-07-04T15:32:22;4.22;;;2.30;;
49758;SDS011;35654;46.080;11.118;2022-07-04T15:34:47;4.40;;;2.47;;
49758;SDS011;35654;46.080;11.118;2022-07-04T15:37:12;5.82;;;2.50;;
49758;SDS011;35654;46.080;11.118;2022-07-04T15:39:38;3.97;;;2.30;;
49758;SDS011;35654;46.080;11.118;2022-07-04T15:42:03;3.53;;;2.38;;
49758;SDS011;35654;46.080;11.118;2022-07-04T15:44:29;3.80;;;2.72;;
49758;SDS011;35654;46.080;11.118;2022-07-04T15:46:54;4.43;;;2.70;;
49758;SDS011;35654;46.080;11.118;2022-07-04T15:49:34;3.50;;;2.33;;
49758;SDS011;35654;46.080;11.118;2022-07-04T15:52:01;3.80;;;2.75;;
49758;SDS011;35654;46.080;11.118;2022-07-04T15:54:29;4.57;;;2.38;;
49758;SDS011;35654;46.080;11.118;2022-07-04T15:56:54;3.30;;;2.45;;
49758;SDS011;35654;46.080;11.118;2022-07-04T15:59:20;6.35;;;2.30;;
49758;SDS011;35654;46.080;11.118;2022-07-04T16:01:45;6.70;;;2.45;;
49758;SDS011;35654;46.080;11.118;2022-07-04T16:04:11;4.47;;;2.40;;
49758;SDS011;35654;46.080;11.118;2022-07-04T16:06:36;6.45;;;2.47;;
49758;SDS011;35654;46.080;11.118;2022-07-04T16:09:02;3.22;;;2.38;;
49758;SDS011;35654;46.080;11.118;2022-07-04T16:11:27;4.78;;;2.42;;
49758;SDS011;35654;46.080;11.118;2022-07-04T16:13:53;5.00;;;2.60;;
49758;SDS011;35654;46.080;11.118;2022-07-04T16:16:19;4.00;;;2.85;;
49758;SDS011;35654;46.080;11.118;2022-07-04T16:18:44;4.70;;;2.85;;
49758;SDS011;35654;46.080;11.118;2022-07-04T16:21:10;4.78;;;2.65;;
49758;SDS011;35654;46.080;11.118;2022-07-04T16:23:35;5.72;;;2.88;;
49758;SDS011;35654;46.080;11.118;2022-07-04T16:26:01;5.18;;;2.85;;
49758;SDS011;35654;46.080;11.118;2022-07-04T16:28:26;5.22;;;2.80;;
49758;SDS011;35654;46.080;11.118;2022-07-04T16:30:51;4.00;;;2.63;;
49758;SDS011;35654;46.080;11.118;2022-07-04T16:33:17;7.53;;;2.95;;
49758;SDS011;35654;46.080;11.118;2022-07-04T16:35:42;4.88;;;2.80;;
49758;SDS011;35654;46.080;11.118;2022-07-04T16:38:08;5.38;;;2.75;;
49758;SDS011;35654;46.080;11.118;2022-07-04T16:40:33;6.30;;;2.63;;
49758;SDS011;35654;46.080;11.118;2022-07-04T16:42:59;5.07;;;2.85;;
49758;SDS011;35654;46.080;11.118;2022-07-04T16:45:24;4.72;;;3.17;;
49758;SDS011;35654;46.080;11.118;2022-07-04T16:47:49;5.03;;;2.70;;
49758;SDS011;35654;46.080;11.118;2022-07-04T16:52:40;5.00;;;3.27;;
49758;SDS011;35654;46.080;11.118;2022-07-04T16:57:31;3.65;;;3.05;;